Aérodrome :
LOGIN :

S'inscrire | Disclaimer

   EN    FR    IT 

 










Légende :    VFR   VFR Marginal   IFR   IFR Intensif   IFR Très Intensif
Visi : 
Plafond : 
>= 8 km
>= 3000ft
5 à 8 km
1000 à 3000 ft
1500m à 5 km
500 à 1000 ft
800 à 1500m
200 à 500 ft
< 800m
< 200 ft
Symboles :   Orages  Brouillard  Fortes neiges  Fortes précipitations  Vent > 20 kt
SIGMETs :   Divers  Orages  Givrage  Turbulence  Onde Orograph.  Cendres Volcan.







- Altitude de l'aérodrome : 1084 ft
- Code IATA : EPL
- Voir les cartes d'approche


LFSG - Épinal-Mirecourt

DERNIER METAR :
  • 222100Z AUTO 25011KT 9999 FEW033 BKN042 OVC052 08/06 Q1020

METARs EXPIRÉS :
  • 222030Z AUTO 23008KT 9999 BKN043 BKN060 OVC150 08/05 Q1020
  • 222000Z AUTO 24008KT CAVOK 08/05 Q1020
  • 221930Z AUTO 22007KT 9999 SCT034 BKN052 BKN066 07/05 Q1020
  • 221900Z AUTO 22006KT CAVOK 08/05 Q1020
  • 221830Z AUTO 21006KT 9999 FEW043 SCT110 OVC140 08/06 Q1020
  • 221800Z AUTO 23008KT 9999 FEW025 SCT041 BKN084 08/06 Q1019

TAF N/A
Pas de NOTAMs connus pour ce terrain.
1 SIGMET publié pour la FIR Reims (LFEE) :
 
Turbulence forte
LFEE SIGMET 6 VALID 221900/222300 LFPW
LFEE REIMS FIR/UIR SEV TURB FCST WI N4700 E00645 - N4630 E00615 - N4630 E00445 - N4730 E00415 - N4830 E00530 - N4900 E00445 - N4915 E00530 FL210/320 MOV E 10KT NC=



MET'MAP, la Météo Aéronautique d'un coup d'oeil ! - Copyright ORBIFLY Décembre 2007 - Disclaimer

ORBIFLY MET'MAP TEAM :

Programmation & Développement : Alexandra Zaïnal
Conception & Développement : Baudouin d'Aumeries
Co-Programmation & Développement : Marc-Olivier Méhu
Soutien technique & logistique : Manuel Goepfert

Contact : metmap@orbifly.com




SOURCES & CREDITS :

   NOAA